sensor_id;sensor_type;location;lat;lon;timestamp;pressure;altitude;pressure_sealevel;temperature;humidity
33280;BME280;20403;43.114;12.434;2022-09-01T00:00:22;98804.75;;;21.05;100.00
33280;BME280;20403;43.114;12.434;2022-09-01T00:02:52;98803.78;;;21.01;100.00
33280;BME280;20403;43.114;12.434;2022-09-01T00:05:18;98807.69;;;21.04;100.00
33280;BME280;20403;43.114;12.434;2022-09-01T00:07:43;98803.88;;;21.10;100.00
33280;BME280;20403;43.114;12.434;2022-09-01T00:10:09;98798.75;;;21.13;100.00
33280;BME280;20403;43.114;12.434;2022-09-01T00:12:34;98800.91;;;21.11;100.00
33280;BME280;20403;43.114;12.434;2022-09-01T00:15:00;98795.72;;;21.06;100.00
33280;BME280;20403;43.114;12.434;2022-09-01T00:17:25;98795.44;;;21.08;100.00
33280;BME280;20403;43.114;12.434;2022-09-01T00:19:51;98789.31;;;21.07;100.00
33280;BME280;20403;43.114;12.434;2022-09-01T00:22:16;98790.53;;;21.01;100.00
33280;BME280;20403;43.114;12.434;2022-09-01T00:24:41;98791.97;;;21.07;100.00
33280;BME280;20403;43.114;12.434;2022-09-01T00:27:06;98788.56;;;20.93;100.00
33280;BME280;20403;43.114;12.434;2022-09-01T00:29:32;98795.75;;;20.92;100.00
33280;BME280;20403;43.114;12.434;2022-09-01T00:31:57;98789.84;;;20.95;100.00
33280;BME280;20403;43.114;12.434;2022-09-01T00:34:22;98792.03;;;20.93;100.00
33280;BME280;20403;43.114;12.434;2022-09-01T00:36:47;98782.00;;;20.90;100.00
33280;BME280;20403;43.114;12.434;2022-09-01T00:39:13;98781.44;;;20.93;100.00
33280;BME280;20403;43.114;12.434;2022-09-01T00:41:39;98777.38;;;20.96;100.00
33280;BME280;20403;43.114;12.434;2022-09-01T00:44:07;98781.22;;;20.90;100.00
33280;BME280;20403;43.114;12.434;2022-09-01T00:46:35;98787.78;;;20.92;100.00
33280;BME280;20403;43.114;12.434;2022-09-01T00:49:02;98789.66;;;20.92;100.00
33280;BME280;20403;43.114;12.434;2022-09-01T00:51:28;98789.25;;;20.98;100.00
33280;BME280;20403;43.114;12.434;2022-09-01T00:53:54;98788.66;;;21.02;100.00
33280;BME280;20403;43.114;12.434;2022-09-01T00:56:21;98780.81;;;20.96;100.00
33280;BME280;20403;43.114;12.434;2022-09-01T00:58:48;98783.59;;;20.91;100.00
33280;BME280;20403;43.114;12.434;2022-09-01T01:01:13;98788.19;;;20.86;100.00
33280;BME280;20403;43.114;12.434;2022-09-01T01:03:39;98787.53;;;20.80;100.00
33280;BME280;20403;43.114;12.434;2022-09-01T01:06:10;98780.47;;;20.75;100.00
33280;BME280;20403;43.114;12.434;2022-09-01T01:08:39;98790.06;;;20.85;100.00
33280;BME280;20403;43.114;12.434;2022-09-01T01:13:31;98784.88;;;20.80;100.00
33280;BME280;20403;43.114;12.434;2022-09-01T01:16:00;98783.28;;;20.79;100.00
33280;BME280;20403;43.114;12.434;2022-09-01T01:18:26;98786.75;;;20.80;100.00
33280;BME280;20403;43.114;12.434;2022-09-01T01:21:04;98790.75;;;20.77;100.00
33280;BME280;20403;43.114;12.434;2022-09-01T01:24:15;98791.94;;;20.85;100.00
33280;BME280;20403;43.114;12.434;2022-09-01T01:26:38;98795.66;;;20.84;100.00
33280;BME280;20403;43.114;12.434;2022-09-01T01:29:03;98787.31;;;20.76;100.00
33280;BME280;20403;43.114;12.434;2022-09-01T01:31:30;98785.94;;;20.79;100.00
33280;BME280;20403;43.114;12.434;2022-09-01T01:33:56;98787.81;;;20.78;100.00
33280;BME280;20403;43.114;12.434;2022-09-01T01:36:27;98783.22;;;20.84;100.00
33280;BME280;20403;43.114;12.434;2022-09-01T01:39:01;98774.66;;;20.87;100.00
33280;BME280;20403;43.114;12.434;2022-09-01T01:41:31;98783.28;;;20.79;100.00
33280;BME280;20403;43.114;12.434;2022-09-01T01:43:58;98782.41;;;20.70;100.00
33280;BME280;20403;43.114;12.434;2022-09-01T01:46:24;98782.34;;;20.61;100.00
33280;BME280;20403;43.114;12.434;2022-09-01T01:48:50;98782.34;;;20.61;100.00
33280;BME280;20403;43.114;12.434;2022-09-01T01:51:16;98785.44;;;20.49;100.00
33280;BME280;20403;43.114;12.434;2022-09-01T01:53:44;98781.44;;;20.52;100.00
33280;BME280;20403;43.114;12.434;2022-09-01T01:56:09;98773.78;;;20.50;100.00
33280;BME280;20403;43.114;12.434;2022-09-01T01:58:35;98768.66;;;20.54;100.00
33280;BME280;20403;43.114;12.434;2022-09-01T02:01:00;98773.66;;;20.55;100.00
33280;BME280;20403;43.114;12.434;2022-09-01T02:03:31;98770.44;;;20.59;100.00
33280;BME280;20403;43.114;12.434;2022-09-01T02:06:03;98766.91;;;20.63;100.00
33280;BME280;20403;43.114;12.434;2022-09-01T02:08:31;98772.69;;;20.65;100.00
33280;BME280;20403;43.114;12.434;2022-09-01T02:10:58;98771.53;;;20.58;100.00
33280;BME280;20403;43.114;12.434;2022-09-01T02:13:24;98762.03;;;20.56;100.00
33280;BME280;20403;43.114;12.434;2022-09-01T02:15:53;98764.94;;;20.55;100.00
33280;BME280;20403;43.114;12.434;2022-09-01T02:18:21;98765.63;;;20.47;100.00
33280;BME280;20403;43.114;12.434;2022-09-01T02:20:49;98766.81;;;20.41;100.00
33280;BME280;20403;43.114;12.434;2022-09-01T02:23:15;98763.19;;;20.36;100.00
33280;BME280;20403;43.114;12.434;2022-09-01T02:25:42;98762.00;;;20.29;100.00
33280;BME280;20403;43.114;12.434;2022-09-01T02:28:11;98758.56;;;20.28;100.00
33280;BME280;20403;43.114;12.434;2022-09-01T02:30:39;98751.97;;;20.26;100.00
33280;BME280;20403;43.114;12.434;2022-09-01T02:33:05;98756.50;;;20.25;100.00
33280;BME280;20403;43.114;12.434;2022-09-01T02:35:33;98751.88;;;20.31;100.00
33280;BME280;20403;43.114;12.434;2022-09-01T02:38:01;98754.75;;;20.34;100.00
33280;BME280;20403;43.114;12.434;2022-09-01T02:40:27;98754.53;;;20.31;100.00
33280;BME280;20403;43.114;12.434;2022-09-01T02:42:59;98746.31;;;20.32;100.00
33280;BME280;20403;43.114;12.434;2022-09-01T02:45:27;98746.19;;;20.38;100.00
33280;BME280;20403;43.114;12.434;2022-09-01T02:47:54;98744.94;;;20.35;100.00
33280;BME280;20403;43.114;12.434;2022-09-01T02:50:21;98742.09;;;20.31;100.00
33280;BME280;20403;43.114;12.434;2022-09-01T02:52:49;98743.06;;;20.35;100.00
33280;BME280;20403;43.114;12.434;2022-09-01T02:55:16;98730.63;;;20.36;100.00
33280;BME280;20403;43.114;12.434;2022-09-01T02:57:45;98728.47;;;20.24;100.00
33280;BME280;20403;43.114;12.434;2022-09-01T03:00:12;98724.63;;;20.30;100.00
33280;BME280;20403;43.114;12.434;2022-09-01T03:02:49;98726.00;;;20.42;100.00
33280;BME280;20403;43.114;12.434;2022-09-01T03:05:17;98715.00;;;20.34;100.00
33280;BME280;20403;43.114;12.434;2022-09-01T03:07:43;98714.25;;;20.34;100.00
33280;BME280;20403;43.114;12.434;2022-09-01T03:10:08;98710.50;;;20.35;100.00
33280;BME280;20403;43.114;12.434;2022-09-01T03:12:34;98711.38;;;20.30;100.00
33280;BME280;20403;43.114;12.434;2022-09-01T03:14:59;98703.53;;;20.25;100.00
33280;BME280;20403;43.114;12.434;2022-09-01T03:17:24;98704.16;;;20.22;100.00
33280;BME280;20403;43.114;12.434;2022-09-01T03:19:49;98701.09;;;20.15;100.00
33280;BME280;20403;43.114;12.434;2022-09-01T03:22:16;98694.22;;;20.14;100.00
33280;BME280;20403;43.114;12.434;2022-09-01T03:24:41;98693.44;;;20.13;100.00
33280;BME280;20403;43.114;12.434;2022-09-01T03:27:06;98691.78;;;20.18;100.00
33280;BME280;20403;43.114;12.434;2022-09-01T03:29:32;98693.94;;;20.15;100.00
33280;BME280;20403;43.114;12.434;2022-09-01T03:31:58;98692.47;;;20.23;100.00
33280;BME280;20403;43.114;12.434;2022-09-01T03:34:23;98692.06;;;20.16;100.00
33280;BME280;20403;43.114;12.434;2022-09-01T03:36:51;98680.22;;;20.13;100.00
33280;BME280;20403;43.114;12.434;2022-09-01T03:39:18;98682.56;;;20.15;100.00
33280;BME280;20403;43.114;12.434;2022-09-01T03:41:44;98675.97;;;20.26;100.00
33280;BME280;20403;43.114;12.434;2022-09-01T03:44:10;98683.84;;;20.31;100.00
33280;BME280;20403;43.114;12.434;2022-09-01T03:46:36;98677.16;;;20.34;100.00
33280;BME280;20403;43.114;12.434;2022-09-01T03:49:02;98670.09;;;20.29;100.00
33280;BME280;20403;43.114;12.434;2022-09-01T03:51:30;98672.38;;;20.36;100.00
33280;BME280;20403;43.114;12.434;2022-09-01T03:53:56;98674.22;;;20.22;100.00
33280;BME280;20403;43.114;12.434;2022-09-01T03:56:23;98682.09;;;20.13;100.00
33280;BME280;20403;43.114;12.434;2022-09-01T03:58:50;98679.72;;;20.11;100.00
33280;BME280;20403;43.114;12.434;2022-09-01T04:01:17;98679.94;;;20.01;100.00
33280;BME280;20403;43.114;12.434;2022-09-01T04:03:43;98677.19;;;19.92;100.00
33280;BME280;20403;43.114;12.434;2022-09-01T04:06:12;98675.31;;;19.93;100.00
33280;BME280;20403;43.114;12.434;2022-09-01T04:08:37;98672.88;;;19.97;100.00
33280;BME280;20403;43.114;12.434;2022-09-01T04:11:08;98675.53;;;19.97;100.00
33280;BME280;20403;43.114;12.434;2022-09-01T04:13:35;98673.94;;;19.96;100.00
33280;BME280;20403;43.114;12.434;2022-09-01T04:16:01;98671.00;;;19.97;100.00
33280;BME280;20403;43.114;12.434;2022-09-01T04:18:26;98674.16;;;19.99;100.00
33280;BME280;20403;43.114;12.434;2022-09-01T04:20:53;98676.47;;;20.01;100.00
33280;BME280;20403;43.114;12.434;2022-09-01T04:23:28;98674.72;;;19.96;100.00
33280;BME280;20403;43.114;12.434;2022-09-01T04:25:56;98675.31;;;19.93;100.00
33280;BME280;20403;43.114;12.434;2022-09-01T04:28:22;98669.72;;;19.94;100.00
33280;BME280;20403;43.114;12.434;2022-09-01T04:30:49;98678.44;;;20.09;100.00
33280;BME280;20403;43.114;12.434;2022-09-01T04:33:15;98676.78;;;20.13;100.00
33280;BME280;20403;43.114;12.434;2022-09-01T04:35:41;98686.69;;;20.21;100.00
33280;BME280;20403;43.114;12.434;2022-09-01T04:38:06;98680.81;;;20.24;100.00
33280;BME280;20403;43.114;12.434;2022-09-01T04:40:38;98690.09;;;20.22;100.00
33280;BME280;20403;43.114;12.434;2022-09-01T04:43:04;98679.94;;;20.29;100.00
33280;BME280;20403;43.114;12.434;2022-09-01T04:45:29;98682.97;;;20.22;100.00
33280;BME280;20403;43.114;12.434;2022-09-01T04:47:55;98691.78;;;20.18;100.00
33280;BME280;20403;43.114;12.434;2022-09-01T04:50:21;98698.34;;;20.20;100.00
33280;BME280;20403;43.114;12.434;2022-09-01T04:52:47;98693.16;;;20.15;100.00
33280;BME280;20403;43.114;12.434;2022-09-01T04:55:15;98700.78;;;20.17;100.00
33280;BME280;20403;43.114;12.434;2022-09-01T04:57:47;98700.50;;;20.18;100.00
33280;BME280;20403;43.114;12.434;2022-09-01T05:00:18;98700.69;;;20.22;100.00
33280;BME280;20403;43.114;12.434;2022-09-01T05:02:48;98701.56;;;20.17;100.00
33280;BME280;20403;43.114;12.434;2022-09-01T05:05:13;98704.03;;;20.13;100.00
33280;BME280;20403;43.114;12.434;2022-09-01T05:07:39;98698.84;;;20.08;100.00
33280;BME280;20403;43.114;12.434;2022-09-01T05:10:04;98708.16;;;20.06;100.00
33280;BME280;20403;43.114;12.434;2022-09-01T05:12:30;98704.72;;;20.05;100.00
33280;BME280;20403;43.114;12.434;2022-09-01T05:14:55;98710.31;;;20.04;100.00
33280;BME280;20403;43.114;12.434;2022-09-01T05:17:20;98706.47;;;20.10;100.00
33280;BME280;20403;43.114;12.434;2022-09-01T05:19:46;98712.16;;;20.17;100.00
33280;BME280;20403;43.114;12.434;2022-09-01T05:22:12;98700.31;;;20.14;100.00
33280;BME280;20403;43.114;12.434;2022-09-01T05:24:38;98701.09;;;20.15;100.00
33280;BME280;20403;43.114;12.434;2022-09-01T05:27:04;98699.72;;;20.31;100.00
33280;BME280;20403;43.114;12.434;2022-09-01T05:29:30;98704.91;;;20.36;100.00
33280;BME280;20403;43.114;12.434;2022-09-01T05:31:55;98708.84;;;20.39;100.00
33280;BME280;20403;43.114;12.434;2022-09-01T05:34:21;98707.44;;;20.55;100.00
33280;BME280;20403;43.114;12.434;2022-09-01T05:36:57;98706.16;;;20.53;100.00
33280;BME280;20403;43.114;12.434;2022-09-01T05:39:23;98707.69;;;20.59;100.00
33280;BME280;20403;43.114;12.434;2022-09-01T05:41:49;98710.69;;;20.66;100.00
33280;BME280;20403;43.114;12.434;2022-09-01T05:44:18;98719.72;;;20.65;100.00
33280;BME280;20403;43.114;12.434;2022-09-01T05:46:46;98712.25;;;20.67;100.00
33280;BME280;20403;43.114;12.434;2022-09-01T05:49:13;98712.97;;;20.59;100.00
33280;BME280;20403;43.114;12.434;2022-09-01T05:51:42;98719.22;;;20.63;100.00
33280;BME280;20403;43.114;12.434;2022-09-01T05:54:07;98721.06;;;20.76;100.00
33280;BME280;20403;43.114;12.434;2022-09-01T05:56:34;98719.28;;;20.86;100.00
33280;BME280;20403;43.114;12.434;2022-09-01T05:59:03;98719.16;;;20.91;100.00
33280;BME280;20403;43.114;12.434;2022-09-01T06:01:29;98715.44;;;20.92;100.00
33280;BME280;20403;43.114;12.434;2022-09-01T06:03:57;98707.22;;;20.93;100.00
33280;BME280;20403;43.114;12.434;2022-09-01T06:06:25;98709.91;;;21.02;100.00
33280;BME280;20403;43.114;12.434;2022-09-01T06:08:51;98702.31;;;21.09;100.00
33280;BME280;20403;43.114;12.434;2022-09-01T06:11:17;98698.59;;;21.10;100.00
33280;BME280;20403;43.114;12.434;2022-09-01T06:13:43;98691.72;;;21.32;100.00
33280;BME280;20403;43.114;12.434;2022-09-01T06:16:13;98697.03;;;21.32;100.00
33280;BME280;20403;43.114;12.434;2022-09-01T06:18:39;98706.44;;;21.38;100.00
33280;BME280;20403;43.114;12.434;2022-09-01T06:21:07;98700.59;;;21.50;100.00
33280;BME280;20403;43.114;12.434;2022-09-01T06:23:33;98699.84;;;21.58;100.00
33280;BME280;20403;43.114;12.434;2022-09-01T06:26:00;98694.69;;;21.53;100.00
33280;BME280;20403;43.114;12.434;2022-09-01T06:28:27;98686.06;;;21.47;100.00
33280;BME280;20403;43.114;12.434;2022-09-01T06:30:54;98697.94;;;21.50;100.00
33280;BME280;20403;43.114;12.434;2022-09-01T06:33:21;98704.44;;;21.44;100.00
33280;BME280;20403;43.114;12.434;2022-09-01T06:35:49;98711.38;;;21.31;100.00
33280;BME280;20403;43.114;12.434;2022-09-01T06:38:16;98708.13;;;21.34;100.00
33280;BME280;20403;43.114;12.434;2022-09-01T06:40:43;98708.31;;;21.37;100.00
33280;BME280;20403;43.114;12.434;2022-09-01T06:43:09;98710.25;;;21.46;100.00
33280;BME280;20403;43.114;12.434;2022-09-01T06:45:40;98713.19;;;21.44;100.00
33280;BME280;20403;43.114;12.434;2022-09-01T06:48:06;98710.00;;;21.33;100.00
33280;BME280;20403;43.114;12.434;2022-09-01T06:50:31;98701.22;;;21.47;100.00
33280;BME280;20403;43.114;12.434;2022-09-01T06:52:56;98704.78;;;21.42;100.00
33280;BME280;20403;43.114;12.434;2022-09-01T06:55:40;98702.69;;;21.39;100.00
33280;BME280;20403;43.114;12.434;2022-09-01T06:58:08;98708.31;;;21.37;100.00
33280;BME280;20403;43.114;12.434;2022-09-01T07:00:37;98708.88;;;21.34;100.00
33280;BME280;20403;43.114;12.434;2022-09-01T07:03:06;98714.94;;;21.49;100.00
33280;BME280;20403;43.114;12.434;2022-09-01T07:05:33;98715.41;;;21.51;100.00
33280;BME280;20403;43.114;12.434;2022-09-01T07:08:03;98696.78;;;21.65;100.00
33280;BME280;20403;43.114;12.434;2022-09-01T07:10:42;98698.81;;;21.99;100.00
33280;BME280;20403;43.114;12.434;2022-09-01T07:13:10;98696.44;;;22.29;100.00
33280;BME280;20403;43.114;12.434;2022-09-01T07:15:37;98698.34;;;22.54;100.00
33280;BME280;20403;43.114;12.434;2022-09-01T07:18:03;98697.59;;;22.71;100.00
33280;BME280;20403;43.114;12.434;2022-09-01T07:20:28;98696.38;;;22.86;100.00
33280;BME280;20403;43.114;12.434;2022-09-01T07:22:54;98692.28;;;22.89;100.00
33280;BME280;20403;43.114;12.434;2022-09-01T07:25:28;98695.59;;;22.85;100.00
33280;BME280;20403;43.114;12.434;2022-09-01T07:27:55;98696.19;;;22.91;100.00
33280;BME280;20403;43.114;12.434;2022-09-01T07:30:21;98702.16;;;22.97;100.00
33280;BME280;20403;43.114;12.434;2022-09-01T07:35:13;98699.03;;;22.95;100.00
33280;BME280;20403;43.114;12.434;2022-09-01T07:37:38;98704.81;;;22.97;100.00
33280;BME280;20403;43.114;12.434;2022-09-01T07:40:05;98707.81;;;23.04;100.00
33280;BME280;20403;43.114;12.434;2022-09-01T07:42:31;98699.03;;;23.30;100.00
33280;BME280;20403;43.114;12.434;2022-09-01T07:44:57;98700.03;;;23.63;100.00
33280;BME280;20403;43.114;12.434;2022-09-01T07:47:23;98693.13;;;23.80;100.00
33280;BME280;20403;43.114;12.434;2022-09-01T07:49:48;98696.72;;;23.75;100.00
33280;BME280;20403;43.114;12.434;2022-09-01T07:52:13;98694.41;;;23.65;100.00
33280;BME280;20403;43.114;12.434;2022-09-01T07:54:38;98696.16;;;23.52;100.00
33280;BME280;20403;43.114;12.434;2022-09-01T07:57:04;98697.75;;;23.44;100.00
33280;BME280;20403;43.114;12.434;2022-09-01T07:59:30;98695.25;;;23.39;100.00
33280;BME280;20403;43.114;12.434;2022-09-01T08:01:57;98695.25;;;23.31;100.00
33280;BME280;20403;43.114;12.434;2022-09-01T08:04:22;98698.56;;;23.36;100.00
33280;BME280;20403;43.114;12.434;2022-09-01T08:06:47;98694.78;;;23.20;100.00
33280;BME280;20403;43.114;12.434;2022-09-01T08:09:13;98694.66;;;23.07;100.00
33280;BME280;20403;43.114;12.434;2022-09-01T08:11:38;98705.75;;;23.01;100.00
33280;BME280;20403;43.114;12.434;2022-09-01T08:14:04;98705.59;;;22.97;100.00
33280;BME280;20403;43.114;12.434;2022-09-01T08:16:29;98704.47;;;22.90;100.00
33280;BME280;20403;43.114;12.434;2022-09-01T08:18:55;98701.03;;;22.80;100.00
33280;BME280;20403;43.114;12.434;2022-09-01T08:21:21;98712.94;;;22.83;100.00
33280;BME280;20403;43.114;12.434;2022-09-01T08:23:48;98712.94;;;22.83;100.00
33280;BME280;20403;43.114;12.434;2022-09-01T08:26:14;98717.63;;;22.95;100.00
33280;BME280;20403;43.114;12.434;2022-09-01T08:28:40;98715.63;;;23.00;100.00
33280;BME280;20403;43.114;12.434;2022-09-01T08:31:06;98721.19;;;23.68;100.00
33280;BME280;20403;43.114;12.434;2022-09-01T08:33:31;98711.53;;;24.32;100.00
33280;BME280;20403;43.114;12.434;2022-09-01T08:35:59;98707.59;;;24.89;100.00
33280;BME280;20403;43.114;12.434;2022-09-01T08:38:24;98706.66;;;25.27;100.00
33280;BME280;20403;43.114;12.434;2022-09-01T08:40:51;98697.16;;;25.17;100.00
33280;BME280;20403;43.114;12.434;2022-09-01T08:45:48;98712.72;;;24.73;100.00
33280;BME280;20403;43.114;12.434;2022-09-01T08:50:39;98714.69;;;24.25;100.00
33280;BME280;20403;43.114;12.434;2022-09-01T08:53:27;98721.69;;;24.09;100.00
33280;BME280;20403;43.114;12.434;2022-09-01T08:55:52;98724.75;;;23.81;100.00
33280;BME280;20403;43.114;12.434;2022-09-01T08:58:18;98732.16;;;23.49;100.00
33280;BME280;20403;43.114;12.434;2022-09-01T09:00:45;98749.28;;;23.22;100.00
33280;BME280;20403;43.114;12.434;2022-09-01T09:10:42;98784.03;;;21.89;100.00
33280;BME280;20403;43.114;12.434;2022-09-01T09:15:51;98794.84;;;21.47;100.00
33280;BME280;20403;43.114;12.434;2022-09-01T09:18:30;98808.91;;;21.34;100.00
33280;BME280;20403;43.114;12.434;2022-09-01T09:20:59;98804.91;;;21.23;100.00
33280;BME280;20403;43.114;12.434;2022-09-01T09:23:29;98807.19;;;21.15;100.00
33280;BME280;20403;43.114;12.434;2022-09-01T09:25:58;98797.56;;;21.19;100.00
33280;BME280;20403;43.114;12.434;2022-09-01T09:28:23;98801.78;;;21.07;100.00
33280;BME280;20403;43.114;12.434;2022-09-01T09:30:48;98808.47;;;21.04;100.00
33280;BME280;20403;43.114;12.434;2022-09-01T09:33:33;98808.22;;;20.92;100.00
33280;BME280;20403;43.114;12.434;2022-09-01T09:41:31;98780.47;;;20.75;100.00
33280;BME280;20403;43.114;12.434;2022-09-01T09:43:57;98776.03;;;20.85;100.00
33280;BME280;20403;43.114;12.434;2022-09-01T09:51:36;98771.00;;;20.97;100.00
33280;BME280;20403;43.114;12.434;2022-09-01T09:56:37;98783.06;;;21.03;100.00
33280;BME280;20403;43.114;12.434;2022-09-01T09:59:14;98793.84;;;21.07;100.00
33280;BME280;20403;43.114;12.434;2022-09-01T10:01:40;98795.13;;;21.09;100.00
33280;BME280;20403;43.114;12.434;2022-09-01T10:04:06;98785.13;;;21.06;100.00
33280;BME280;20403;43.114;12.434;2022-09-01T10:06:35;98780.47;;;21.12;100.00
33280;BME280;20403;43.114;12.434;2022-09-01T10:09:47;98763.94;;;21.29;100.00
33280;BME280;20403;43.114;12.434;2022-09-01T10:11:54;98750.41;;;21.53;100.00
33280;BME280;20403;43.114;12.434;2022-09-01T10:16:47;98737.13;;;21.75;100.00
33280;BME280;20403;43.114;12.434;2022-09-01T10:19:14;98737.72;;;21.72;100.00
33280;BME280;20403;43.114;12.434;2022-09-01T10:21:40;98734.66;;;21.79;100.00
33280;BME280;20403;43.114;12.434;2022-09-01T10:24:51;98732.44;;;21.81;100.00
33280;BME280;20403;43.114;12.434;2022-09-01T10:26:52;98733.75;;;21.92;100.00
33280;BME280;20403;43.114;12.434;2022-09-01T10:29:25;98733.06;;;22.09;100.00
33280;BME280;20403;43.114;12.434;2022-09-01T10:31:53;98737.38;;;22.36;100.00
33280;BME280;20403;43.114;12.434;2022-09-01T10:34:19;98735.22;;;22.47;100.00
33280;BME280;20403;43.114;12.434;2022-09-01T10:36:45;98726.34;;;22.52;100.00
33280;BME280;20403;43.114;12.434;2022-09-01T10:39:13;98731.47;;;22.39;100.00
33280;BME280;20403;43.114;12.434;2022-09-01T10:41:49;98733.09;;;22.58;100.00
33280;BME280;20403;43.114;12.434;2022-09-01T10:47:00;98736.69;;;23.58;100.00
33280;BME280;20403;43.114;12.434;2022-09-01T10:51:52;98742.63;;;24.19;100.00
33280;BME280;20403;43.114;12.434;2022-09-01T10:57:02;98741.63;;;24.32;100.00
33280;BME280;20403;43.114;12.434;2022-09-01T10:59:31;98736.34;;;24.24;100.00
33280;BME280;20403;43.114;12.434;2022-09-01T11:02:16;98729.53;;;24.05;100.00
33280;BME280;20403;43.114;12.434;2022-09-01T11:09:46;98722.66;;;24.34;100.00
33280;BME280;20403;43.114;12.434;2022-09-01T11:14:59;98715.38;;;25.15;100.00
33280;BME280;20403;43.114;12.434;2022-09-01T11:19:55;98708.88;;;25.83;100.00
33280;BME280;20403;43.114;12.434;2022-09-01T11:24:51;98704.25;;;25.13;100.00
33280;BME280;20403;43.114;12.434;2022-09-01T11:30:16;98718.56;;;25.29;100.00
33280;BME280;20403;43.114;12.434;2022-09-01T11:32:42;98711.22;;;25.26;100.00
33280;BME280;20403;43.114;12.434;2022-09-01T11:35:14;98715.13;;;25.29;100.00
33280;BME280;20403;43.114;12.434;2022-09-01T11:37:40;98716.78;;;25.33;100.00
33280;BME280;20403;43.114;12.434;2022-09-01T11:40:06;98717.41;;;25.18;100.00
33280;BME280;20403;43.114;12.434;2022-09-01T11:42:38;98717.41;;;24.97;100.00
33280;BME280;20403;43.114;12.434;2022-09-01T11:47:35;98706.72;;;24.76;100.00
33280;BME280;20403;43.114;12.434;2022-09-01T11:50:07;98715.31;;;24.61;100.00
33280;BME280;20403;43.114;12.434;2022-09-01T11:52:40;98716.38;;;24.39;100.00
33280;BME280;20403;43.114;12.434;2022-09-01T11:55:06;98727.44;;;24.20;100.00
33280;BME280;20403;43.114;12.434;2022-09-01T11:57:35;98725.25;;;24.22;100.00
33280;BME280;20403;43.114;12.434;2022-09-01T12:00:03;98726.72;;;24.40;100.00
33280;BME280;20403;43.114;12.434;2022-09-01T12:02:32;98725.25;;;24.22;100.00
33280;BME280;20403;43.114;12.434;2022-09-01T12:04:58;98719.25;;;24.25;100.00
33280;BME280;20403;43.114;12.434;2022-09-01T12:10:20;98731.44;;;24.85;100.00
33280;BME280;20403;43.114;12.434;2022-09-01T12:12:46;98720.44;;;25.29;100.00
33280;BME280;20403;43.114;12.434;2022-09-01T12:15:19;98729.47;;;25.36;100.00
33280;BME280;20403;43.114;12.434;2022-09-01T12:17:45;98730.69;;;25.27;100.00
33280;BME280;20403;43.114;12.434;2022-09-01T12:20:20;98720.25;;;24.92;100.00
33280;BME280;20403;43.114;12.434;2022-09-01T12:22:45;98712.78;;;24.64;100.00
33280;BME280;20403;43.114;12.434;2022-09-01T12:25:18;98706.88;;;24.59;100.00
33280;BME280;20403;43.114;12.434;2022-09-01T12:27:44;98702.06;;;24.52;100.00
33280;BME280;20403;43.114;12.434;2022-09-01T12:30:10;98702.69;;;24.49;100.00
33280;BME280;20403;43.114;12.434;2022-09-01T12:32:35;98696.44;;;24.45;100.00
33280;BME280;20403;43.114;12.434;2022-09-01T12:35:01;98692.56;;;24.33;100.00
33280;BME280;20403;43.114;12.434;2022-09-01T12:37:27;98691.66;;;24.29;100.00
33280;BME280;20403;43.114;12.434;2022-09-01T12:39:53;98694.16;;;24.26;100.00
33280;BME280;20403;43.114;12.434;2022-09-01T12:45:04;98689.69;;;24.18;100.00
33280;BME280;20403;43.114;12.434;2022-09-01T12:55:17;98690.91;;;24.20;100.00
33280;BME280;20403;43.114;12.434;2022-09-01T12:57:49;98688.31;;;24.32;100.00
33280;BME280;20403;43.114;12.434;2022-09-01T13:00:23;98695.47;;;24.49;100.00
33280;BME280;20403;43.114;12.434;2022-09-01T13:02:49;98695.41;;;24.79;100.00
33280;BME280;20403;43.114;12.434;2022-09-01T13:07:42;98698.19;;;25.70;100.00
33280;BME280;20403;43.114;12.434;2022-09-01T13:10:07;98697.97;;;25.75;100.00
33280;BME280;20403;43.114;12.434;2022-09-01T13:12:32;98706.31;;;25.62;100.00
33280;BME280;20403;43.114;12.434;2022-09-01T13:14:58;98709.94;;;25.45;100.00
33280;BME280;20403;43.114;12.434;2022-09-01T13:17:23;98699.63;;;25.22;100.00
33280;BME280;20403;43.114;12.434;2022-09-01T13:19:48;98702.09;;;25.27;100.00
33280;BME280;20403;43.114;12.434;2022-09-01T13:22:13;98695.38;;;25.42;100.00
33280;BME280;20403;43.114;12.434;2022-09-01T13:24:39;98694.94;;;25.52;100.00
33280;BME280;20403;43.114;12.434;2022-09-01T13:27:04;98695.69;;;25.41;100.00
33280;BME280;20403;43.114;12.434;2022-09-01T13:29:29;98703.22;;;25.26;100.00
33280;BME280;20403;43.114;12.434;2022-09-01T13:31:55;98717.72;;;25.16;100.00
33280;BME280;20403;43.114;12.434;2022-09-01T13:34:21;98729.97;;;24.97;100.00
33280;BME280;20403;43.114;12.434;2022-09-01T13:36:46;98724.03;;;24.70;100.00
33280;BME280;20403;43.114;12.434;2022-09-01T13:39:11;98729.25;;;24.66;100.00
33280;BME280;20403;43.114;12.434;2022-09-01T13:41:37;98729.03;;;24.50;100.00
33280;BME280;20403;43.114;12.434;2022-09-01T13:44:03;98728.09;;;24.38;100.00
33280;BME280;20403;43.114;12.434;2022-09-01T13:46:28;98724.28;;;24.26;100.00
33280;BME280;20403;43.114;12.434;2022-09-01T13:48:53;98729.63;;;24.18;100.00
33280;BME280;20403;43.114;12.434;2022-09-01T13:51:25;98737.53;;;24.05;100.00
33280;BME280;20403;43.114;12.434;2022-09-01T13:53:51;98739.75;;;23.95;100.00
33280;BME280;20403;43.114;12.434;2022-09-01T13:56:16;98739.28;;;23.93;100.00
33280;BME280;20403;43.114;12.434;2022-09-01T13:58:42;98738.66;;;23.96;100.00